Time;durP1;ratioP1;P1;durP2;ratioP2;P2;SDS_P1;SDS_P2;PMS_P1;PMS_P2;Temp;Humidity;BMP_temperature;BMP_pressure;BME280_temperature;BME280_humidity;BME280_pressure;Samples;Min_cycle;Max_cycle;Signal;HPM_P1;HPM_P2
2021/05/15 00:00:38;;;;;;;35.55;26.30;;;11.40;81.00;10.40;100618.00;;;;5028773;28;20049;-80
2021/05/15 00:03:05;;;;;;;36.63;25.42;;;11.40;81.60;10.40;100624.00;;;;5001482;28;20134;-78
2021/05/15 00:05:31;;;;;;;31.67;23.55;;;11.30;81.30;10.30;100620.00;;;;5040419;28;20121;-79
2021/05/15 00:07:59;;;;;;;35.50;25.60;;;11.30;81.90;10.20;100619.00;;;;5023559;28;20038;-80
2021/05/15 00:10:25;;;;;;;30.83;22.95;;;11.20;81.20;10.10;100620.00;;;;5019364;28;20045;-79
2021/05/15 00:12:51;;;;;;;33.40;23.50;;;11.10;82.00;10.10;100618.00;;;;5005449;28;20041;-77
2021/05/15 00:15:18;;;;;;;39.75;25.60;;;11.10;82.00;10.10;100619.00;;;;5003605;28;20088;-78
2021/05/15 00:17:44;;;;;;;35.58;24.77;;;11.00;82.10;10.00;100612.00;;;;5020780;28;20493;-78
2021/05/15 00:20:15;;;;;;;36.83;25.02;;;11.00;82.20;9.90;100604.00;;;;5017569;28;20158;-78
2021/05/15 00:22:43;;;;;;;35.25;24.25;;;10.90;81.20;9.90;100609.00;;;;5019907;28;20100;-79
2021/05/15 00:25:12;;;;;;;39.05;26.73;;;10.90;81.40;9.90;100605.00;;;;5019914;28;20048;-79
2021/05/15 00:27:38;;;;;;;29.13;20.90;;;10.90;82.30;9.90;100602.00;;;;5012080;28;20938;-79
2021/05/15 00:30:07;;;;;;;44.37;28.47;;;11.60;82.60;9.80;100609.00;;;;5037346;28;20037;-79
2021/05/15 00:32:34;;;;;;;35.13;25.63;;;10.90;82.30;9.80;100609.00;;;;5020661;28;20037;-79
2021/05/15 00:34:59;;;;;;;39.03;27.65;;;10.80;82.20;9.70;100598.00;;;;5036470;28;20041;-79
2021/05/15 00:37:27;;;;;;;31.98;22.20;;;10.80;82.40;9.60;100602.00;;;;5019955;28;20867;-79
2021/05/15 00:39:53;;;;;;;37.40;26.23;;;10.70;81.60;9.70;100600.00;;;;5010168;28;20037;-79
2021/05/15 00:42:19;;;;;;;40.55;27.55;;;11.60;84.30;9.60;100601.00;;;;5017358;28;20095;-78
2021/05/15 00:44:45;;;;;;;35.55;24.77;;;10.70;82.80;9.70;100609.00;;;;5017749;28;20096;-79
2021/05/15 00:47:19;;;;;;;37.42;25.40;;;10.70;83.00;9.60;100597.00;;;;5031632;28;20140;-79
2021/05/15 00:49:48;;;;;;;41.45;28.35;;;10.70;82.30;9.60;100594.00;;;;5026664;28;20083;-79
2021/05/15 00:52:15;;;;;;;42.70;29.02;;;10.60;82.50;9.60;100596.00;;;;5020514;28;20784;-78
2021/05/15 00:54:42;;;;;;;43.17;28.92;;;10.60;83.20;9.60;100586.00;;;;5038558;28;20045;-78
2021/05/15 00:57:10;;;;;;;39.47;27.20;;;11.20;83.50;9.50;100587.00;;;;5031190;28;20037;-78
2021/05/15 00:59:39;;;;;;;43.20;28.50;;;10.50;82.50;9.50;100595.00;;;;5035794;28;20172;-79
2021/05/15 01:02:07;;;;;;;43.30;28.80;;;10.60;83.50;9.50;100594.00;;;;5018718;28;20608;-78
2021/05/15 01:04:34;;;;;;;34.63;23.85;;;10.50;83.70;9.50;100597.00;;;;5012276;28;20042;-78
2021/05/15 01:07:02;;;;;;;41.95;27.17;;;10.40;82.80;9.50;100600.00;;;;5011855;28;20120;-79
2021/05/15 01:09:28;;;;;;;42.28;28.42;;;10.40;83.70;9.50;100597.00;;;;5003580;28;20672;-78
2021/05/15 01:11:54;;;;;;;46.58;30.08;;;10.50;83.90;9.50;100593.00;;;;5001035;28;20049;-79
2021/05/15 01:14:20;;;;;;;46.67;30.33;;;10.50;83.80;9.40;100595.00;;;;5026308;28;20089;-79
2021/05/15 01:16:48;;;;;;;50.03;31.77;;;10.40;83.90;9.40;100593.00;;;;5029046;28;20055;-78
2021/05/15 01:19:15;;;;;;;47.67;29.98;;;10.30;83.00;9.30;100582.00;;;;5023310;28;20037;-79
2021/05/15 01:21:42;;;;;;;51.97;32.67;;;10.30;84.30;9.30;100572.00;;;;5004924;28;20613;-78
2021/05/15 01:24:09;;;;;;;52.88;33.70;;;10.60;84.60;9.30;100562.00;;;;5029322;28;20048;-79
2021/05/15 01:26:35;;;;;;;49.13;32.72;;;10.30;84.40;9.30;100576.00;;;;5050324;28;20048;-78
2021/05/15 01:29:05;;;;;;;49.72;32.38;;;10.30;84.70;9.30;100567.00;;;;5020232;28;20041;-80
2021/05/15 01:31:32;;;;;;;38.33;26.45;;;10.30;84.80;9.30;100559.00;;;;5021250;28;20512;-80
2021/05/15 01:33:58;;;;;;;;;;;10.30;85.10;9.20;100573.00;;;;5029792;28;20124;-80
2021/05/15 01:36:26;;;;;;;38.78;27.42;;;10.20;84.60;9.30;100562.00;;;;5015643;28;20410;-80
2021/05/15 01:38:52;;;;;;;54.50;34.30;;;10.30;84.30;9.40;100569.00;;;;5013346;28;20604;-80
2021/05/15 01:41:19;;;;;;;51.60;33.15;;;10.30;84.20;9.40;100568.00;;;;5003945;28;20415;-80
2021/05/15 01:43:46;;;;;;;;;;;10.30;85.10;9.30;100555.00;;;;5014879;28;20037;-80
2021/05/15 01:46:12;;;;;;;53.03;32.95;;;10.30;86.20;9.30;100554.00;;;;5001701;28;21310;-78
2021/05/15 01:48:39;;;;;;;53.78;33.63;;;10.30;85.10;9.40;100544.00;;;;5012649;28;20111;-78
2021/05/15 01:51:10;;;;;;;55.22;33.97;;;10.40;85.10;9.40;100555.00;;;;5015849;28;20052;-78
2021/05/15 01:53:44;;;;;;;52.83;34.28;;;10.30;85.10;9.30;100551.00;;;;5018132;28;20044;-79
2021/05/15 01:56:13;;;;;;;50.92;32.53;;;9.70;85.00;9.40;100535.00;;;;5021862;28;20040;-79
2021/05/15 01:58:40;;;;;;;53.40;34.08;;;10.30;85.00;9.40;100552.00;;;;5011169;28;20531;-79
2021/05/15 02:01:06;;;;;;;51.42;33.13;;;10.50;86.40;9.40;100542.00;;;;5010615;28;20045;-79
2021/05/15 02:03:34;;;;;;;52.50;32.25;;;10.30;85.70;9.30;100524.00;;;;5029200;28;20052;-78
2021/05/15 02:06:00;;;;;;;50.65;32.75;;;10.30;85.60;9.30;100539.00;;;;5025138;28;20034;-79
2021/05/15 02:08:26;;;;;;;49.72;31.90;;;10.30;86.00;9.40;100531.00;;;;5020664;28;20044;-78
2021/05/15 02:10:56;;;;;;;45.22;30.77;;;10.30;86.20;9.40;100528.00;;;;5019098;28;20045;-78
2021/05/15 02:13:25;;;;;;;45.10;30.52;;;10.30;85.90;9.40;100520.00;;;;5012185;28;20049;-79
2021/05/15 02:15:51;;;;;;;51.08;32.67;;;10.30;85.80;9.40;100504.00;;;;5019074;28;20121;-79
2021/05/15 02:18:17;;;;;;;58.33;35.42;;;10.40;86.30;9.40;100518.00;;;;5019756;28;20042;-78
2021/05/15 02:20:44;;;;;;;54.92;33.92;;;10.40;85.80;9.40;100513.00;;;;5023584;28;20049;-79
2021/05/15 02:23:11;;;;;;;55.88;34.83;;;10.40;86.40;9.50;100515.00;;;;5001735;28;20037;-79
2021/05/15 02:25:38;;;;;;;50.60;31.55;;;10.60;86.50;9.50;100514.00;;;;5031604;28;20040;-78
2021/05/15 02:28:05;;;;;;;50.17;33.63;;;10.40;86.60;9.50;100512.00;;;;5028749;28;20041;-79
2021/05/15 02:30:32;;;;;;;64.93;38.40;;;10.50;86.50;9.50;100511.00;;;;5016008;28;20417;-78
2021/05/15 02:32:58;;;;;;;;;;;11.30;87.00;9.50;100523.00;;;;5019099;28;20102;-79
2021/05/15 02:35:24;;;;;;;99.93;50.05;;;10.50;87.20;9.60;100501.00;;;;5031329;28;19980;-80
2021/05/15 02:37:52;;;;;;;92.30;48.53;;;10.50;86.60;9.60;100498.00;;;;5024414;28;20042;-79
2021/05/15 02:40:21;;;;;;;115.28;56.65;;;10.50;85.90;9.60;100502.00;;;;5012988;28;20064;-80
2021/05/15 02:42:49;;;;;;;92.05;46.88;;;10.60;86.80;9.60;100499.00;;;;5017742;28;20146;-79
2021/05/15 02:45:18;;;;;;;102.80;54.47;;;10.60;86.00;9.70;100495.00;;;;5034634;28;20476;-79
2021/05/15 02:47:43;;;;;;;87.85;46.38;;;10.60;86.30;9.70;100497.00;;;;5034639;28;20037;-80
2021/05/15 02:50:12;;;;;;;95.40;50.88;;;10.60;87.00;9.80;100496.00;;;;5014646;28;20534;-79
2021/05/15 02:52:38;;;;;;;88.03;47.05;;;10.70;87.00;9.80;100490.00;;;;5035311;28;20090;-79
2021/05/15 02:55:10;;;;;;;95.13;49.20;;;10.70;87.00;9.80;100483.00;;;;5033658;28;20045;-79
2021/05/15 02:57:37;;;;;;;81.55;47.65;;;10.70;87.00;9.80;100482.00;;;;5030894;28;20037;-79
2021/05/15 03:00:06;;;;;;;83.68;47.83;;;10.70;86.90;9.80;100482.00;;;;5031833;28;20075;-78
2021/05/15 03:02:33;;;;;;;73.45;41.78;;;10.80;87.00;9.90;100476.00;;;;5031065;28;20044;-79
2021/05/15 03:04:58;;;;;;;71.50;44.13;;;10.80;86.50;9.90;100481.00;;;;5011893;28;20049;-79
2021/05/15 03:07:25;;;;;;;68.43;41.85;;;10.80;87.00;10.00;100479.00;;;;5009149;28;20072;-79
2021/05/15 03:09:51;;;;;;;65.25;39.53;;;11.00;87.30;10.00;100472.00;;;;5012332;28;20064;-78
2021/05/15 03:12:17;;;;;;;62.95;39.45;;;10.90;87.50;10.00;100477.00;;;;5013667;28;20041;-79
2021/05/15 03:14:43;;;;;;;61.45;38.25;;;10.80;87.30;10.00;100475.00;;;;5005467;28;20046;-79
2021/05/15 03:17:12;;;;;;;69.73;42.90;;;10.90;86.70;10.00;100473.00;;;;5011518;28;20056;-79
2021/05/15 03:19:38;;;;;;;56.80;35.97;;;10.90;87.20;10.00;100464.00;;;;5012031;28;20073;-79
2021/05/15 03:22:04;;;;;;;58.22;38.28;;;10.90;87.00;10.00;100474.00;;;;5008736;28;20132;-80
2021/05/15 03:24:31;;;;;;;64.10;39.78;;;10.90;86.60;10.10;100476.00;;;;5016220;28;20128;-79
2021/05/15 03:26:58;;;;;;;60.08;38.90;;;11.00;87.20;10.10;100477.00;;;;5014553;28;20060;-79
2021/05/15 03:29:26;;;;;;;62.05;39.33;;;11.00;87.30;10.10;100475.00;;;;5009105;28;20050;-78
2021/05/15 03:31:52;;;;;;;59.67;38.40;;;11.20;87.50;10.10;100476.00;;;;5022725;28;20411;-78
2021/05/15 03:34:19;;;;;;;58.35;38.22;;;11.00;87.50;10.10;100478.00;;;;5045757;28;20046;-78
2021/05/15 03:36:44;;;;;;;61.40;38.55;;;11.00;87.40;10.20;100470.00;;;;5017519;28;20094;-78
2021/05/15 03:39:18;;;;;;;53.55;36.00;;;11.10;87.00;10.20;100476.00;;;;5012608;28;20057;-78
2021/05/15 03:41:46;;;;;;;45.85;30.90;;;11.30;87.70;10.20;100471.00;;;;4990211;28;20030;-78
2021/05/15 03:44:13;;;;;;;53.28;33.70;;;11.10;87.60;10.30;100474.00;;;;5010540;28;20946;-77
2021/05/15 03:46:39;;;;;;;56.33;36.50;;;11.10;87.70;10.30;100469.00;;;;5035062;28;20099;-78
2021/05/15 03:49:05;;;;;;;79.47;42.55;;;11.10;87.70;10.30;100474.00;;;;5001180;28;20060;-79
2021/05/15 03:51:33;;;;;;;70.90;41.88;;;11.20;88.00;10.30;100468.00;;;;4998996;28;20044;-79
2021/05/15 03:53:59;;;;;;;81.03;45.03;;;11.10;88.10;10.30;100475.00;;;;5005501;28;20037;-79
2021/05/15 03:56:25;;;;;;;77.03;43.05;;;11.20;88.50;10.30;100469.00;;;;5022026;28;20052;-79
2021/05/15 03:58:53;;;;;;;78.87;44.40;;;11.20;88.60;10.30;100467.00;;;;5010034;28;20060;-77
2021/05/15 04:01:20;;;;;;;77.53;43.75;;;11.10;88.70;10.30;100465.00;;;;5014674;28;20050;-78
2021/05/15 04:03:46;;;;;;;81.70;45.63;;;11.10;88.40;10.30;100463.00;;;;5019157;28;20045;-78
2021/05/15 04:06:12;;;;;;;75.05;43.40;;;11.20;88.00;10.30;100472.00;;;;5012570;28;20111;-79
2021/05/15 04:08:38;;;;;;;75.53;42.72;;;11.20;88.50;10.30;100472.00;;;;5022632;28;20520;-78
2021/05/15 04:11:03;;;;;;;94.07;47.90;;;11.20;88.70;10.40;100472.00;;;;4997883;28;20618;-78
2021/05/15 04:18:21;;;;;;;94.55;48.85;;;11.30;88.70;10.50;100467.00;;;;5010208;28;20042;-83
2021/05/15 04:20:47;;;;;;;80.80;43.28;;;11.50;89.30;10.50;100459.00;;;;4991385;28;20687;-81
2021/05/15 04:23:14;;;;;;;104.20;51.38;;;11.30;88.80;10.50;100464.00;;;;5012779;28;20038;-83
2021/05/15 04:25:40;;;;;;;91.78;47.70;;;11.30;88.80;10.50;100460.00;;;;5013590;28;20185;-83
2021/05/15 04:28:07;;;;;;;85.45;47.47;;;11.40;88.90;10.50;100466.00;;;;4993347;28;20080;-83
2021/05/15 04:30:34;;;;;;;87.05;47.15;;;11.30;89.00;10.50;100460.00;;;;5000639;28;20124;-83
2021/05/15 04:33:01;;;;;;;95.22;47.15;;;11.30;89.00;10.50;100469.00;;;;5031744;28;20113;-83
2021/05/15 04:35:32;;;;;;;96.30;50.30;;;11.40;88.30;10.50;100460.00;;;;5031228;28;20108;-83
2021/05/15 04:38:03;;;;;;;91.05;47.22;;;11.30;88.10;10.50;100461.00;;;;5016807;28;20045;-83
2021/05/15 04:40:29;;;;;;;109.22;51.22;;;11.40;90.10;10.50;100454.00;;;;4998072;28;20045;-82
2021/05/15 04:42:57;;;;;;;102.97;49.60;;;11.40;88.40;10.50;100467.00;;;;5012474;28;20048;-83
2021/05/15 04:45:27;;;;;;;108.90;51.70;;;11.40;89.20;10.50;100460.00;;;;5017089;28;20127;-84
2021/05/15 04:47:53;;;;;;;104.28;50.38;;;11.40;89.10;10.50;100459.00;;;;5005409;28;20049;-83
2021/05/15 04:50:19;;;;;;;114.25;51.78;;;11.40;89.10;10.60;100454.00;;;;5013141;28;20060;-83
2021/05/15 04:52:45;;;;;;;87.05;46.33;;;11.40;89.10;10.60;100464.00;;;;5039236;28;20040;-83
2021/05/15 04:55:11;;;;;;;96.65;47.38;;;11.40;89.10;10.60;100463.00;;;;5017174;28;20207;-83
2021/05/15 04:57:37;;;;;;;86.45;45.70;;;11.50;89.10;10.60;100465.00;;;;5015483;28;20150;-83
2021/05/15 05:00:04;;;;;;;90.63;46.70;;;10.90;88.80;10.60;100459.00;;;;5029497;28;20053;-83
2021/05/15 05:02:30;;;;;;;107.90;49.85;;;11.50;89.10;10.60;100458.00;;;;5031245;28;20056;-83
2021/05/15 05:04:57;;;;;;;89.07;44.13;;;11.50;89.10;10.60;100455.00;;;;5020359;28;20042;-84
2021/05/15 05:07:23;;;;;;;81.97;42.05;;;11.50;89.20;10.60;100463.00;;;;5024476;28;20052;-83
2021/05/15 05:09:49;;;;;;;80.50;42.78;;;11.50;89.10;10.70;100462.00;;;;5026765;28;20083;-83
2021/05/15 05:12:15;;;;;;;69.05;36.53;;;11.50;89.20;10.70;100460.00;;;;5032559;28;20159;-83
2021/05/15 05:14:41;;;;;;;66.93;36.03;;;11.50;88.20;10.70;100459.00;;;;5027384;28;20095;-84
2021/05/15 05:17:07;;;;;;;65.07;34.83;;;11.60;89.10;10.70;100460.00;;;;5027555;28;20906;-84
2021/05/15 05:19:32;;;;;;;60.45;33.70;;;11.50;87.80;10.60;100456.00;;;;5039919;28;20420;-83
2021/05/15 05:22:02;;;;;;;68.50;35.80;;;11.50;88.00;10.60;100461.00;;;;4998276;28;20184;-83
2021/05/15 05:24:29;;;;;;;65.85;35.60;;;11.40;88.40;10.70;100460.00;;;;5017086;28;20041;-84
2021/05/15 05:26:56;;;;;;;62.53;35.08;;;11.50;88.30;10.60;100460.00;;;;5032807;28;20154;-83
2021/05/15 05:29:22;;;;;;;67.20;35.08;;;11.50;87.60;10.70;100455.00;;;;5029408;28;20666;-83
2021/05/15 05:31:51;;;;;;;68.80;35.57;;;11.50;88.10;10.70;100459.00;;;;5018943;28;20040;-81
2021/05/15 05:34:19;;;;;;;54.83;32.03;;;11.50;88.10;10.70;100462.00;;;;5033787;28;20045;-82
2021/05/15 05:36:47;;;;;;;58.50;32.80;;;11.50;88.10;10.70;100458.00;;;;5053596;28;20049;-83
2021/05/15 05:39:17;;;;;;;64.25;34.42;;;11.60;87.40;10.80;100464.00;;;;5038428;28;20125;-82
2021/05/15 05:41:45;;;;;;;61.30;33.38;;;11.60;87.90;10.80;100456.00;;;;5035766;28;20085;-83
2021/05/15 05:44:11;;;;;;;63.70;34.70;;;11.60;87.90;10.80;100466.00;;;;5023649;28;21071;-82
2021/05/15 05:46:37;;;;;;;68.85;34.17;;;11.50;87.90;10.80;100460.00;;;;5017145;28;20046;-82
2021/05/15 05:49:04;;;;;;;60.75;34.70;;;11.70;87.90;10.80;100460.00;;;;5029442;28;20069;-82
2021/05/15 05:51:30;;;;;;;63.55;34.33;;;11.70;87.80;10.80;100467.00;;;;5007271;28;20126;-83
2021/05/15 05:53:56;;;;;;;60.58;34.20;;;11.60;87.00;10.80;100467.00;;;;5028892;28;20048;-82
2021/05/15 05:56:22;;;;;;;69.07;34.63;;;11.60;88.90;10.80;100469.00;;;;5026677;28;20037;-81
2021/05/15 05:58:48;;;;;;;64.75;34.17;;;11.60;87.60;10.80;100460.00;;;;5002822;28;20035;-80
2021/05/15 06:01:15;;;;;;;71.20;36.38;;;11.60;86.50;10.80;100470.00;;;;5033330;28;20104;-81
2021/05/15 06:03:42;;;;;;;65.93;33.78;;;11.60;87.50;10.80;100469.00;;;;5017845;28;20041;-83
2021/05/15 06:06:08;;;;;;;63.88;34.72;;;11.60;86.60;10.80;100472.00;;;;5017549;28;20041;-82
2021/05/15 06:08:35;;;;;;;63.53;32.80;;;11.70;86.50;10.80;100468.00;;;;5021832;28;20037;-82
2021/05/15 06:11:01;;;;;;;62.55;32.47;;;11.60;86.40;10.80;100471.00;;;;5000411;28;20153;-82
2021/05/15 06:13:28;;;;;;;62.35;32.75;;;11.60;86.20;10.80;100468.00;;;;5016871;28;20048;-83
2021/05/15 06:15:54;;;;;;;57.13;32.40;;;11.70;86.20;10.80;100472.00;;;;5002622;28;20042;-83
2021/05/15 06:18:20;;;;;;;65.45;31.75;;;11.60;87.00;10.80;100467.00;;;;5015985;28;20042;-83
2021/05/15 06:20:48;;;;;;;69.97;33.42;;;11.90;87.10;10.80;100478.00;;;;5016913;28;20059;-82
2021/05/15 06:23:15;;;;;;;66.93;33.20;;;11.60;86.80;10.80;100477.00;;;;5055722;28;20103;-82
2021/05/15 06:25:41;;;;;;;66.72;32.85;;;11.60;85.80;10.70;100477.00;;;;5029467;28;20072;-82
2021/05/15 06:28:07;;;;;;;60.08;33.10;;;11.60;86.80;10.80;100476.00;;;;5026120;28;20048;-82
2021/05/15 06:30:34;;;;;;;73.53;34.43;;;11.60;87.00;10.80;100487.00;;;;5038767;28;20049;-82
2021/05/15 06:33:00;;;;;;;65.03;32.85;;;11.50;86.90;10.70;100480.00;;;;5051885;28;20048;-81
2021/05/15 06:35:26;;;;;;;57.13;30.85;;;11.50;86.80;10.70;100474.00;;;;5033753;28;20045;-82
2021/05/15 06:37:52;;;;;;;64.10;32.57;;;11.60;85.80;10.80;100479.00;;;;4997490;28;20156;-81
2021/05/15 06:40:18;;;;;;;62.65;33.85;;;11.60;86.80;10.80;100477.00;;;;5015103;28;20504;-82
2021/05/15 06:42:44;;;;;;;62.72;33.00;;;11.70;86.80;10.90;100476.00;;;;5014031;28;20361;-82
2021/05/15 06:45:11;;;;;;;62.03;32.97;;;11.70;86.60;10.90;100485.00;;;;5018067;28;20667;-81
2021/05/15 06:47:38;;;;;;;66.57;31.77;;;11.70;85.30;10.90;100463.00;;;;5000323;28;20065;-82
2021/05/15 06:50:06;;;;;;;66.53;33.15;;;11.80;86.30;10.90;100476.00;;;;5018789;28;20053;-82
2021/05/15 06:52:32;;;;;;;70.07;34.67;;;11.80;86.20;11.00;100476.00;;;;5018321;28;20067;-82
2021/05/15 06:54:58;;;;;;;66.82;34.08;;;11.90;85.30;11.10;100475.00;;;;4997396;28;20595;-82
2021/05/15 06:57:24;;;;;;;63.10;33.58;;;11.90;86.20;11.20;100478.00;;;;4999959;28;20120;-82
2021/05/15 06:59:51;;;;;;;63.05;33.60;;;12.00;86.00;11.30;100479.00;;;;5008341;28;20465;-82
2021/05/15 07:02:16;;;;;;;67.40;33.33;;;12.30;86.20;11.40;100475.00;;;;5029266;28;20029;-82
2021/05/15 07:04:42;;;;;;;61.15;34.05;;;12.10;84.50;11.40;100478.00;;;;5049993;28;20045;-81
2021/05/15 07:07:08;;;;;;;63.35;34.85;;;12.10;85.40;11.40;100471.00;;;;5008093;28;20496;-81
2021/05/15 07:09:34;;;;;;;67.57;35.83;;;12.30;84.30;11.50;100473.00;;;;5033730;28;20045;-82
2021/05/15 07:12:00;;;;;;;67.43;37.00;;;12.20;85.30;11.60;100478.00;;;;5004677;28;20041;-81
2021/05/15 07:14:26;;;;;;;65.55;36.13;;;12.30;84.10;11.60;100468.00;;;;5015773;28;20060;-82
2021/05/15 07:16:52;;;;;;;64.75;35.97;;;12.30;83.70;11.60;100464.00;;;;5012214;28;20045;-82
2021/05/15 07:19:18;;;;;;;67.80;36.60;;;12.80;85.00;11.70;100459.00;;;;5031216;28;20068;-82
2021/05/15 07:21:44;;;;;;;70.32;37.55;;;12.40;83.80;11.80;100462.00;;;;4993107;28;20075;-81
2021/05/15 07:24:10;;;;;;;65.78;36.85;;;12.50;85.00;11.90;100456.00;;;;5016430;28;20041;-81
2021/05/15 07:26:36;;;;;;;61.92;36.22;;;12.60;84.80;11.90;100464.00;;;;5023572;28;20037;-81
2021/05/15 07:29:03;;;;;;;63.33;37.40;;;12.40;84.20;12.00;100459.00;;;;5018321;28;20033;-82
2021/05/15 07:31:30;;;;;;;62.65;36.03;;;12.80;84.20;12.00;100452.00;;;;5034487;28;20109;-80
2021/05/15 07:33:56;;;;;;;60.83;36.95;;;12.70;83.40;12.00;100459.00;;;;5013550;28;20041;-81
2021/05/15 07:36:22;;;;;;;63.70;35.80;;;12.80;81.70;12.00;100452.00;;;;5014044;28;20046;-82
2021/05/15 07:38:48;;;;;;;62.88;36.42;;;12.80;81.60;12.00;100448.00;;;;5029100;28;20609;-80
2021/05/15 07:41:16;;;;;;;61.53;35.00;;;12.70;83.10;12.10;100452.00;;;;5031515;28;20648;-80
2021/05/15 07:43:42;;;;;;;63.53;35.20;;;12.80;82.90;12.10;100451.00;;;;5036052;28;20037;-82
2021/05/15 07:46:08;;;;;;;64.13;37.53;;;12.80;81.70;12.10;100449.00;;;;5034261;28;20044;-82
2021/05/15 07:48:41;;;;;;;58.88;35.00;;;12.70;82.70;12.20;100448.00;;;;5032186;28;20102;-81
2021/05/15 07:51:13;;;;;;;56.13;34.42;;;12.90;83.00;12.20;100453.00;;;;5036511;28;20538;-81
2021/05/15 07:53:40;;;;;;;61.10;34.72;;;13.00;80.90;12.30;100447.00;;;;5038904;28;20212;-81
2021/05/15 07:56:06;;;;;;;55.90;34.20;;;13.00;81.00;12.30;100447.00;;;;5010571;28;20053;-82
2021/05/15 07:58:33;;;;;;;67.37;37.67;;;13.00;80.40;12.30;100440.00;;;;5015268;28;20049;-83
2021/05/15 08:01:00;;;;;;;58.17;37.22;;;13.00;82.30;12.30;100439.00;;;;5015421;28;20053;-81
2021/05/15 08:03:27;;;;;;;62.95;36.60;;;13.10;80.70;12.30;100444.00;;;;5021872;28;20075;-80
2021/05/15 08:05:53;;;;;;;59.75;38.13;;;13.10;80.00;12.40;100437.00;;;;5031222;28;20044;-80
2021/05/15 08:08:20;;;;;;;58.92;37.53;;;13.10;82.00;12.40;100434.00;;;;5035020;28;20041;-80
2021/05/15 08:10:46;;;;;;;59.53;37.35;;;13.10;81.50;12.50;100433.00;;;;5002192;28;20053;-80
2021/05/15 08:13:12;;;;;;;56.13;35.53;;;13.20;81.10;12.60;100436.00;;;;5019419;28;20042;-81
2021/05/15 08:15:39;;;;;;;59.33;36.67;;;13.20;80.90;12.70;100435.00;;;;5014482;28;20060;-81
2021/05/15 08:18:05;;;;;;;;;;;13.30;80.60;12.80;100429.00;;;;5022223;28;20030;-82
2021/05/15 08:20:31;;;;;;;53.85;34.47;;;13.40;79.70;13.00;100428.00;;;;5033994;28;19991;-80
2021/05/15 08:22:57;;;;;;;56.42;35.00;;;13.60;80.30;13.20;100436.00;;;;5037352;28;20048;-80
2021/05/15 08:25:25;;;;;;;53.10;34.25;;;13.70;80.10;13.30;100443.00;;;;5032116;28;20045;-80
2021/05/15 08:27:54;;;;;;;52.53;33.63;;;13.90;79.50;13.30;100428.00;;;;5008635;28;20870;-79
2021/05/15 08:30:22;;;;;;;54.60;33.17;;;13.90;78.90;13.30;100436.00;;;;5019306;28;20037;-79
2021/05/15 08:32:54;;;;;;;52.42;32.42;;;13.90;75.90;13.20;100429.00;;;;5033763;28;20106;-79
2021/05/15 08:35:21;;;;;;;47.70;30.08;;;13.90;75.50;13.20;100436.00;;;;5039231;28;20129;-80
2021/05/15 08:37:48;;;;;;;44.97;28.92;;;13.90;76.60;13.20;100436.00;;;;5035798;28;20045;-80
2021/05/15 08:40:15;;;;;;;47.40;28.98;;;13.90;77.70;13.20;100441.00;;;;5035901;28;20162;-80
2021/05/15 08:42:43;;;;;;;41.33;27.17;;;13.90;77.90;13.20;100438.00;;;;5015775;28;20052;-80
2021/05/15 08:45:12;;;;;;;41.28;26.38;;;13.90;77.00;13.30;100438.00;;;;5003217;28;20531;-80
2021/05/15 08:47:41;;;;;;;40.97;27.13;;;13.90;77.60;13.30;100433.00;;;;5018688;28;20030;-79
2021/05/15 08:50:11;;;;;;;41.72;26.15;;;14.00;77.50;13.20;100442.00;;;;5026596;28;20040;-78
2021/05/15 08:52:49;;;;;;;42.10;27.25;;;14.00;76.50;13.20;100438.00;;;;5036540;28;20144;-79
2021/05/15 08:55:19;;;;;;;43.75;27.30;;;13.90;76.80;13.20;100437.00;;;;5021361;28;20119;-78
2021/05/15 08:57:45;;;;;;;41.45;27.33;;;14.00;77.50;13.30;100436.00;;;;5033406;28;20080;-79
2021/05/15 09:00:33;;;;;;;42.85;27.92;;;14.00;76.80;13.40;100429.00;;;;5012741;28;20038;-78
2021/05/15 09:03:03;;;;;;;41.30;26.20;;;14.00;75.60;13.40;100436.00;;;;5041733;28;20037;-79
2021/05/15 09:05:32;;;;;;;42.22;26.48;;;14.10;74.00;13.50;100420.00;;;;5036650;28;20053;-80
2021/05/15 09:08:00;;;;;;;44.10;28.10;;;14.10;75.60;13.60;100424.00;;;;5036476;28;21394;-79
2021/05/15 09:10:30;;;;;;;41.30;25.48;;;14.30;73.50;13.60;100428.00;;;;5041365;28;20087;-79
2021/05/15 09:13:27;;;;;;;36.45;23.42;;;14.30;71.90;13.60;100425.00;;;;5037626;28;20040;-80
2021/05/15 09:16:02;;;;;;;34.60;22.95;;;14.30;73.90;13.70;100427.00;;;;5035905;28;20074;-78
2021/05/15 09:18:39;;;;;;;37.80;24.58;;;14.40;73.50;13.70;100422.00;;;;5046834;28;20049;-79
2021/05/15 09:21:11;;;;;;;40.80;26.13;;;14.40;73.40;13.90;100415.00;;;;5043907;28;20420;-79
2021/05/15 09:23:40;;;;;;;39.80;25.80;;;14.40;73.30;14.00;100415.00;;;;5060171;28;20044;-79
2021/05/15 09:26:09;;;;;;;38.03;23.13;;;14.50;72.90;14.10;100412.00;;;;5040028;28;20064;-80
2021/05/15 09:28:41;;;;;;;35.85;22.48;;;14.80;69.20;14.30;100403.00;;;;5040341;28;20052;-80
2021/05/15 09:31:28;;;;;;;36.03;22.77;;;14.80;72.00;14.40;100408.00;;;;5040945;28;20064;-79
2021/05/15 09:34:03;;;;;;;35.13;23.25;;;15.00;72.40;14.50;100411.00;;;;5047145;28;20045;-78
2021/05/15 09:36:35;;;;;;;42.50;25.65;;;15.10;71.30;14.50;100396.00;;;;5039983;28;20049;-80
2021/05/15 09:39:10;;;;;;;40.17;26.58;;;15.10;69.40;14.50;100397.00;;;;5036513;28;20085;-78
2021/05/15 09:41:49;;;;;;;36.75;24.23;;;15.10;71.30;14.50;100394.00;;;;5035297;28;20057;-79
2021/05/15 09:44:24;;;;;;;40.55;26.60;;;15.10;69.40;14.60;100387.00;;;;5029038;28;20117;-79
2021/05/15 09:46:52;;;;;;;39.60;25.58;;;15.20;71.00;14.60;100382.00;;;;5041934;28;20877;-78
2021/05/15 09:49:29;;;;;;;40.63;26.15;;;15.20;71.20;14.80;100372.00;;;;5022679;28;20041;-78
2021/05/15 09:52:02;;;;;;;42.15;28.10;;;15.30;71.20;15.00;100361.00;;;;5020253;28;20038;-78
2021/05/15 09:54:32;;;;;;;38.47;26.27;;;15.50;71.50;15.20;100358.00;;;;5020032;28;20124;-78
2021/05/15 09:57:04;;;;;;;39.38;26.33;;;15.60;70.50;15.30;100360.00;;;;5017924;28;20049;-78
2021/05/15 09:59:43;;;;;;;39.55;26.02;;;15.80;70.40;15.50;100348.00;;;;5031670;28;20512;-78
2021/05/15 10:02:17;;;;;;;37.47;25.55;;;16.00;66.00;15.70;100343.00;;;;5030639;28;20045;-80
2021/05/15 10:04:47;;;;;;;40.63;26.40;;;16.30;68.00;15.80;100333.00;;;;5045369;28;20040;-78
2021/05/15 10:07:25;;;;;;;39.50;26.02;;;16.20;68.80;15.80;100341.00;;;;5010641;28;21151;-78
2021/05/15 10:09:51;;;;;;;40.15;26.25;;;16.40;68.50;15.90;100342.00;;;;5018516;28;20053;-77
2021/05/15 10:12:19;;;;;;;36.13;24.40;;;16.50;68.80;15.90;100333.00;;;;5048083;28;20056;-77
2021/05/15 10:14:45;;;;;;;35.78;23.45;;;16.50;68.20;15.90;100334.00;;;;5031480;28;20053;-78
2021/05/15 10:17:11;;;;;;;35.10;23.80;;;16.50;66.80;15.80;100332.00;;;;5045033;28;20075;-77
2021/05/15 10:19:37;;;;;;;38.10;22.92;;;16.40;67.70;15.80;100324.00;;;;5040143;28;21177;-77
2021/05/15 10:22:03;;;;;;;35.70;23.85;;;16.40;66.70;15.80;100324.00;;;;5051980;28;20052;-77
2021/05/15 10:24:34;;;;;;;38.15;24.42;;;16.40;64.40;15.80;100325.00;;;;5045209;28;20504;-78
2021/05/15 10:27:10;;;;;;;38.47;24.17;;;16.40;66.50;15.90;100315.00;;;;5015255;28;21325;-77
2021/05/15 10:29:43;;;;;;;38.13;24.13;;;16.50;66.80;16.00;100302.00;;;;5023959;28;20524;-77
2021/05/15 10:32:15;;;;;;;37.10;23.73;;;16.50;66.30;16.00;100298.00;;;;5027402;28;21059;-77
2021/05/15 10:34:46;;;;;;;35.03;22.83;;;16.30;67.00;16.00;100299.00;;;;5037842;28;20060;-78
2021/05/15 10:37:21;;;;;;;37.47;23.77;;;16.60;66.50;16.20;100297.00;;;;5016233;28;20048;-77
2021/05/15 10:39:48;;;;;;;34.90;24.05;;;16.70;65.30;16.40;100299.00;;;;4985997;28;20034;-76
2021/05/15 10:42:32;;;;;;;34.40;23.45;;;16.90;64.40;16.50;100291.00;;;;5012923;28;20072;-77